Time;durP1;ratioP1;P1;durP2;ratioP2;P2;SDS_P1;SDS_P2;PMS_P1;PMS_P2;Temp;Humidity;BMP_temperature;BMP_pressure;BME280_temperature;BME280_humidity;BME280_pressure;Samples;Min_cycle;Max_cycle;Signal;HPM_P1;HPM_P2
2022/04/21 00:00:35;;;;;;;;;;;;;;;9.01;100.00;99076.91;5095237;28;19931;-80
2022/04/21 00:03:04;;;;;;;;;;;;;;;9.03;100.00;99073.72;5079187;28;20007;-80
2022/04/21 00:05:31;;;;;;;;;;;;;;;9.16;100.00;99078.34;5096746;28;20291;-80
2022/04/21 00:07:59;;;;;;;;;;;;;;;9.51;100.00;99068.03;5095429;28;19968;-80
2022/04/21 00:10:26;;;;;;;;;;;;;;;9.03;100.00;99073.72;5095380;28;19967;-79
2022/04/21 00:12:54;;;;;;;;;;;;;;;9.35;100.00;99065.81;5096262;28;19998;-80
2022/04/21 00:15:22;;;;;;;;;;;;;;;9.14;100.00;99072.44;5095106;28;19924;-80
2022/04/21 00:17:49;;;;;;;;;;;;;;;9.09;100.00;99064.50;5096493;28;19931;-80
2022/04/21 00:20:16;;;;;;;;;;;;;;;9.30;100.00;99059.91;5096401;28;19928;-80
2022/04/21 00:25:29;;;;;;;;;;;;;;;9.04;100.00;99053.78;5094980;28;19924;-80
2022/04/21 00:27:56;;;;;;;;;;;;;;;9.25;100.00;99049.22;5095710;28;19928;-80
2022/04/21 00:30:24;;;;;;;;;;;;;;;8.67;100.00;99045.41;5078316;28;19932;-80
2022/04/21 00:32:52;;;;;;;;;;;;;;;8.93;100.00;99043.97;5096152;28;19924;-80
2022/04/21 00:35:22;;;;;;;;;;;;;;;9.18;100.00;99044.50;5095027;28;19928;-80
2022/04/21 00:37:51;;;;;;;;;;;;;;;8.82;100.00;99041.28;5094936;28;20014;-80
2022/04/21 00:40:19;;;;;;;;;;;;;;;8.89;100.00;99038.41;5078184;28;19974;-80
2022/04/21 00:42:46;;;;;;;;;;;;;;;9.28;100.00;99045.59;5094751;28;19924;-80
2022/04/21 00:45:14;;;;;;;;;;;;;;;9.30;100.00;99043.97;5094717;28;19962;-80
2022/04/21 00:47:43;;;;;;;;;;;;;;;9.28;100.00;99034.44;5094720;28;19924;-80
2022/04/21 00:50:18;;;;;;;;;;;;;;;9.33;100.00;99031.97;5094911;28;19924;-80
2022/04/21 00:52:46;;;;;;;;;;;;;;;9.16;100.00;99033.75;5095757;28;19927;-80
2022/04/21 00:55:13;;;;;;;;;;;;;;;9.33;100.00;99031.97;5094442;28;19928;-80
2022/04/21 00:57:41;;;;;;;;;;;;;;;8.80;100.00;99028.94;5095588;28;19930;-80
2022/04/21 01:00:10;;;;;;;;;;;;;;;9.11;100.00;99025.06;5094559;28;19931;-80
2022/04/21 01:02:55;;;;;;;;;;;;;;;9.21;100.00;99028.94;5094242;28;20346;-80
2022/04/21 01:05:28;;;;;;;;;;;;;;;9.22;100.00;99024.94;5077626;28;19928;-79
2022/04/21 01:07:58;;;;;;;;;;;;;;;9.34;100.00;99024.41;5094426;28;19989;-80
2022/04/21 01:10:26;;;;;;;;;;;;;;;9.34;100.00;99018.84;5077458;28;19949;-80
2022/04/21 01:12:54;;;;;;;;;;;;;;;9.14;100.00;99019.47;5077114;28;20024;-80
2022/04/21 01:15:21;;;;;;;;;;;;;;;9.09;100.00;99017.13;5094147;28;20015;-80
2022/04/21 01:17:48;;;;;;;;;;;;;;;9.13;100.00;99015.06;5095328;28;19924;-80
2022/04/21 01:20:16;;;;;;;;;;;;;;;9.16;100.00;99013.47;5095255;28;19924;-80
2022/04/21 01:22:43;;;;;;;;;;;;;;;9.04;100.00;99014.78;5095208;28;19924;-80
2022/04/21 01:25:11;;;;;;;;;;;;;;;9.14;100.00;99013.88;5095202;28;19976;-80
2022/04/21 01:27:39;;;;;;;;;;;;;;;9.00;100.00;99019.59;5093534;28;19930;-80
2022/04/21 01:30:07;;;;;;;;;;;;;;;8.90;100.00;99017.72;5095126;28;19935;-80
2022/04/21 01:32:38;;;;;;;;;;;;;;;8.80;100.00;99012.25;5095091;28;19962;-80
2022/04/21 01:35:06;;;;;;;;;;;;;;;8.66;100.00;99007.59;5095304;28;19930;-80
2022/04/21 01:43:06;;;;;;;;;;;;;;;7.80;100.00;99016.16;5094680;28;20375;-79
2022/04/21 01:45:33;;;;;;;;;;;;;;;7.59;100.00;99024.63;5093529;28;19924;-79
2022/04/21 01:48:01;;;;;;;;;;;;;;;7.67;100.00;99020.63;5093419;28;19947;-79
2022/04/21 01:50:28;;;;;;;;;;;;;;;7.80;100.00;99018.94;5093441;28;20011;-79
2022/04/21 01:52:56;;;;;;;;;;;;;;;7.48;100.00;99025.88;5093333;28;20015;-79
2022/04/21 01:55:24;;;;;;;;;;;;;;;7.80;100.00;99027.28;5094316;28;20359;-79
2022/04/21 01:57:51;;;;;;;;;;;;;;;7.63;100.00;99024.63;5093357;28;19924;-79
2022/04/21 02:00:18;;;;;;;;;;;;;;;7.55;100.00;99015.53;5093387;28;20286;-79
2022/04/21 02:02:45;;;;;;;;;;;;;;;7.55;100.00;99017.50;5094091;28;20263;-79
2022/04/21 02:05:12;;;;;;;;;;;;;;;7.65;100.00;99019.47;5093152;28;20272;-79
2022/04/21 02:07:42;;;;;;;;;;;;;;;7.54;100.00;99008.38;5094065;28;19955;-79
2022/04/21 02:10:09;;;;;;;;;;;;;;;7.41;100.00;98998.91;5094052;28;19977;-79
2022/04/21 02:12:36;;;;;;;;;;;;;;;7.58;100.00;99009.16;5093905;28;19924;-79
2022/04/21 02:15:03;;;;;;;;;;;;;;;7.55;100.00;99004.41;5093966;28;19923;-79
2022/04/21 02:17:32;;;;;;;;;;;;;;;7.54;100.00;99002.81;5093771;28;19924;-79
2022/04/21 02:19:59;;;;;;;;;;;;;;;7.59;100.00;98996.81;5093530;28;19962;-79
2022/04/21 02:22:27;;;;;;;;;;;;;;;7.56;100.00;99003.19;5076030;28;19925;-79
2022/04/21 02:24:54;;;;;;;;;;;;;;;7.56;100.00;98992.06;5092712;28;19931;-79
2022/04/21 02:27:21;;;;;;;;;;;;;;;7.71;100.00;98992.81;5093892;28;19924;-79
2022/04/21 02:29:48;;;;;;;;;;;;;;;7.73;100.00;98985.63;5093082;28;19931;-79
2022/04/21 02:32:15;;;;;;;;;;;;;;;7.74;100.00;98987.19;5093987;28;19931;-79
2022/04/21 02:34:42;;;;;;;;;;;;;;;7.87;100.00;98982.75;5092835;28;19924;-79
2022/04/21 02:37:09;;;;;;;;;;;;;;;7.80;100.00;98988.34;5093845;28;19963;-79
2022/04/21 02:39:37;;;;;;;;;;;;;;;7.81;100.00;98992.75;5092528;28;19928;-79
2022/04/21 02:42:04;;;;;;;;;;;;;;;7.83;100.00;98984.75;5093987;28;19924;-79
2022/04/21 02:44:32;;;;;;;;;;;;;;;7.83;100.00;98989.56;5093954;28;19931;-79
2022/04/21 02:46:59;;;;;;;;;;;;;;;7.80;100.00;98980.00;5092519;28;19924;-79
2022/04/21 02:49:27;;;;;;;;;;;;;;;7.93;100.00;98983.91;5093660;28;20306;-79
2022/04/21 02:51:55;;;;;;;;;;;;;;;7.78;100.00;98974.09;5093694;28;19955;-79
2022/04/21 02:57:20;;;;;;;;;;;;;;;8.09;100.00;98973.06;5093802;28;19924;-79
2022/04/21 03:00:07;;;;;;;;;;;;;;;8.07;100.00;98977.47;5075863;28;20295;-79
2022/04/21 03:02:34;;;;;;;;;;;;;;;8.00;100.00;98971.94;5075865;28;20537;-79
2022/04/21 03:05:01;;;;;;;;;;;;;;;8.00;100.00;98969.13;5092617;28;19924;-79
2022/04/21 03:07:28;;;;;;;;;;;;;;;8.01;100.00;98963.16;5092036;28;19924;-79
2022/04/21 03:09:55;;;;;;;;;;;;;;;8.02;100.00;98967.56;5093646;28;19924;-79
2022/04/21 03:12:23;;;;;;;;;;;;;;;7.94;100.00;98959.66;5092366;28;19935;-79
2022/04/21 03:14:50;;;;;;;;;;;;;;;8.02;100.00;98962.00;5096419;28;19931;-79
2022/04/21 03:17:18;;;;;;;;;;;;;;;7.86;100.00;98961.69;5097589;28;19930;-79
2022/04/21 03:19:46;;;;;;;;;;;;;;;7.88;100.00;98958.50;5097360;28;19975;-79
2022/04/21 03:24:59;;;;;;;;;;;;;;;7.91;100.00;98964.06;5096100;28;19977;-79
2022/04/21 03:27:29;;;;;;;;;;;;;;;7.92;100.00;98960.06;5096862;28;19947;-79
2022/04/21 03:29:56;;;;;;;;;;;;;;;8.00;100.00;98956.03;5079108;28;19924;-79
2022/04/21 03:32:25;;;;;;;;;;;;;;;7.96;100.00;98963.63;5080337;28;20386;-79
2022/04/21 03:34:53;;;;;;;;;;;;;;;8.04;100.00;98950.44;5075505;28;19931;-79
2022/04/21 03:37:21;;;;;;;;;;;;;;;7.68;100.00;98955.47;5075420;28;20356;-79
2022/04/21 03:39:48;;;;;;;;;;;;;;;7.69;100.00;98962.63;5076537;28;19928;-74
2022/04/21 03:42:20;;;;;;;;;;;;;;;7.76;100.00;98958.97;5076644;28;19932;-78
2022/04/21 03:44:47;;;;;;;;;;;;;;;7.57;100.00;98963.09;5076492;28;19964;-78
2022/04/21 03:47:14;;;;;;;;;;;;;;;7.64;100.00;98965.03;5076440;28;19924;-78
2022/04/21 03:49:41;;;;;;;;;;;;;;;7.50;100.00;98959.56;5076171;28;19931;-78
2022/04/21 03:52:11;;;;;;;;;;;;;;;7.46;100.00;98954.00;5076069;28;20256;-78
2022/04/21 03:54:39;;;;;;;;;;;;;;;7.38;100.00;98954.47;5075345;28;19924;-78
2022/04/21 03:57:07;;;;;;;;;;;;;;;7.59;100.00;98957.91;5075066;28;19925;-78
2022/04/21 03:59:34;;;;;;;;;;;;;;;7.59;100.00;98957.91;5076127;28;20418;-78
2022/04/21 04:02:04;;;;;;;;;;;;;;;7.54;100.00;98950.00;5076111;28;19925;-78
2022/04/21 04:04:35;;;;;;;;;;;;;;;7.56;100.00;98953.16;5074827;28;19931;-78
2022/04/21 04:12:35;;;;;;;;;;;;;;;7.56;100.00;98958.72;5075915;28;20292;-78
2022/04/21 04:15:04;;;;;;;;;;;;;;;7.74;100.00;98953.81;5075899;28;19947;-78
2022/04/21 04:17:32;;;;;;;;;;;;;;;7.85;100.00;98954.56;5075895;28;20443;-78
2022/04/21 04:19:59;;;;;;;;;;;;;;;7.73;100.00;98957.81;5074399;28;20356;-78
2022/04/21 04:22:27;;;;;;;;;;;;;;;7.87;100.00;98960.50;5075664;28;20376;-78
2022/04/21 04:24:56;;;;;;;;;;;;;;;7.87;100.00;98962.50;5075641;28;20398;-78
2022/04/21 04:27:24;;;;;;;;;;;;;;;7.87;100.00;98968.06;5075382;28;20376;-78
2022/04/21 04:29:51;;;;;;;;;;;;;;;7.89;100.00;98966.44;5074436;28;20376;-78
2022/04/21 04:32:18;;;;;;;;;;;;;;;7.54;100.00;98966.69;5073186;28;20396;-78
2022/04/21 04:34:45;;;;;;;;;;;;;;;7.90;100.00;98970.81;5072480;28;20364;-78
2022/04/21 04:37:13;;;;;;;;;;;;;;;7.96;100.00;98979.53;5070767;28;20015;-78
2022/04/21 04:39:39;;;;;;;;;;;;;;;8.13;100.00;98964.69;5078400;28;19931;-78
2022/04/21 04:42:16;;;;;;;;;;;;;;;8.16;100.00;98977.78;5095685;28;19931;-78
2022/04/21 04:44:44;;;;;;;;;;;;;;;8.17;100.00;98968.22;5095699;28;20363;-78
2022/04/21 04:47:11;;;;;;;;;;;;;;;8.13;100.00;98971.06;5095421;28;19924;-78
2022/04/21 04:49:39;;;;;;;;;;;;;;;8.04;100.00;98973.47;5095211;28;19974;-78
2022/04/21 04:52:06;;;;;;;;;;;;;;;8.03;100.00;98974.69;5080930;28;19967;-78
2022/04/21 04:54:34;;;;;;;;;;;;;;;8.20;100.00;98965.44;5075442;28;19925;-78
2022/04/21 04:57:01;;;;;;;;;;;;;;;8.16;100.00;98973.03;5073853;28;19924;-78
2022/04/21 04:59:29;;;;;;;;;;;;;;;8.08;100.00;98974.25;5074067;28;19955;-78
2022/04/21 05:01:56;;;;;;;;;;;;;;;8.23;100.00;98970.19;5073782;28;20317;-78
2022/04/21 05:04:24;;;;;;;;;;;;;;;8.41;100.00;98970.84;5073602;28;20398;-78
2022/04/21 05:06:52;;;;;;;;;;;;;;;8.16;100.00;98970.25;5074884;28;19955;-78
2022/04/21 05:09:23;;;;;;;;;;;;;;;8.44;100.00;98967.22;5074673;28;19969;-79
2022/04/21 05:11:54;;;;;;;;;;;;;;;8.50;100.00;98968.38;5073620;28;20015;-78
2022/04/21 05:14:22;;;;;;;;;;;;;;;8.66;100.00;98971.38;5074839;28;19924;-79
2022/04/21 05:16:49;;;;;;;;;;;;;;;8.96;100.00;98968.72;5056957;28;20322;-78
2022/04/21 05:19:17;;;;;;;;;;;;;;;8.92;100.00;98962.38;5066109;28;20383;-79
2022/04/21 05:21:45;;;;;;;;;;;;;;;8.81;100.00;98961.72;5094049;28;20403;-79
2022/04/21 05:24:12;;;;;;;;;;;;;;;8.85;100.00;98962.44;5094866;28;19931;-78
2022/04/21 05:26:41;;;;;;;;;;;;;;;8.72;100.00;98953.00;5094505;28;20385;-75
2022/04/21 05:31:59;;;;;;;;;;;;;;;8.66;100.00;98963.03;5071723;28;19925;-75
2022/04/21 05:34:27;;;;;;;;;;;;;;;8.66;100.00;98956.69;5072006;28;19974;-75
2022/04/21 05:36:54;;;;;;;;;;;;;;;8.89;100.00;98960.41;5054206;28;20322;-76
2022/04/21 05:39:21;;;;;;;;;;;;;;;9.22;100.00;98961.63;5071926;28;19925;-76
2022/04/21 05:41:51;;;;;;;;;;;;;;;9.40;100.00;98950.25;5071818;28;19928;-76
2022/04/21 05:44:18;;;;;;;;;;;;;;;9.32;100.00;98957.09;5071758;28;19924;-76
2022/04/21 05:46:45;;;;;;;;;;;;;;;9.57;100.00;98952.00;5054733;28;19932;-76
2022/04/21 05:49:13;;;;;;;;;;;;;;;9.80;100.00;98954.88;5070119;28;20018;-76
2022/04/21 05:51:41;;;;;;;;;;;;;;;9.63;100.00;98955.91;5071545;28;19924;-76
2022/04/21 05:54:09;;;;;;;;;;;;;;;9.74;100.00;98951.75;5055152;28;19928;-76
2022/04/21 05:56:36;;;;;;;;;;;;;;;10.19;100.00;98947.47;5071446;28;20023;-76
2022/04/21 05:59:03;;;;;;;;;;;;;;;10.54;100.00;98960.09;5071498;28;19925;-76
2022/04/21 06:01:30;;;;;;;;;;;;;;;10.65;100.00;98953.09;5071204;28;19980;-76
2022/04/21 06:03:58;;;;;;;;;;;;;;;10.27;100.00;98950.97;5054845;28;19959;-76
2022/04/21 06:06:25;;;;;;;;;;;;;;;10.04;100.00;98953.72;5071436;28;19931;-77
2022/04/21 06:08:52;;;;;;;;;;;;;;;9.84;100.00;98961.19;5081016;28;19924;-73
2022/04/21 06:11:20;;;;;;;;;;;;;;;10.18;100.00;98964.66;5092513;28;19924;-76
2022/04/21 06:13:47;;;;;;;;;;;;;;;11.19;100.00;98950.88;5093991;28;19924;-78
2022/04/21 06:16:15;;;;;;;;;;;;;;;11.41;100.00;98949.19;5093785;28;19939;-77
2022/04/21 06:18:42;;;;;;;;;;;;;;;11.93;100.00;98944.47;5094124;28;20389;-77
2022/04/21 06:21:09;;;;;;;;;;;;;;;11.80;100.00;98935.16;5094010;28;20012;-76
2022/04/21 06:23:36;;;;;;;;;;;;;;;11.70;100.00;98947.38;5092796;28;19924;-76
2022/04/21 06:26:04;;;;;;;;;;;;;;;11.84;100.00;98941.47;5092725;28;19931;-76
2022/04/21 06:28:34;;;;;;;;;;;;;;;11.30;100.00;98945.81;5092679;28;19924;-76
2022/04/21 06:31:01;;;;;;;;;;;;;;;10.86;100.00;98949.09;5093779;28;20019;-77
2022/04/21 06:33:31;;;;;;;;;;;;;;;11.56;100.00;98941.28;5070232;28;19925;-78
2022/04/21 06:35:59;;;;;;;;;;;;;;;12.04;100.00;98944.22;5058098;28;20009;-76
2022/04/21 06:38:27;;;;;;;;;;;;;;;12.66;100.00;98930.59;5053648;28;20418;-76
2022/04/21 06:40:54;;;;;;;;;;;;;;;13.12;100.00;98918.16;5042153;28;19924;-76
2022/04/21 06:48:53;;;;;;;;;;;;;;;14.84;100.00;98917.50;5052684;28;19940;-76
2022/04/21 06:51:21;;;;;;;;;;;;;;;16.01;100.00;98904.97;5062677;28;19925;-75
2022/04/21 06:53:48;;;;;;;;;;;;;;;16.25;100.00;98902.41;5056375;28;19932;-77
2022/04/21 06:56:16;;;;;;;;;;;;;;;17.20;100.00;98892.66;5074813;28;19925;-76
2022/04/21 06:58:43;;;;;;;;;;;;;;;16.82;100.00;98890.31;5071597;28;20567;-76
2022/04/21 07:01:10;;;;;;;;;;;;;;;16.19;100.00;98888.13;5076606;28;19924;-77
2022/04/21 07:03:37;;;;;;;;;;;;;;;15.30;100.00;98894.06;5074228;28;19925;-76
2022/04/21 07:06:05;;;;;;;;;;;;;;;15.02;100.00;98892.34;5075828;28;19935;-76
2022/04/21 07:08:31;;;;;;;;;;;;;;;15.37;100.00;98891.81;5067931;28;19929;-76
2022/04/21 07:10:59;;;;;;;;;;;;;;;15.07;100.00;98889.69;5071307;28;19929;-76
2022/04/21 07:13:26;;;;;;;;;;;;;;;14.60;100.00;98891.03;5070994;28;19928;-76
2022/04/21 07:15:54;;;;;;;;;;;;;;;13.67;100.00;98897.28;5062142;28;19925;-76
2022/04/21 07:18:21;;;;;;;;;;;;;;;14.44;100.00;98897.59;5075701;28;19978;-76
2022/04/21 07:20:48;;;;;;;;;;;;;;;13.91;100.00;98896.50;5073054;28;20011;-76
2022/04/21 07:23:15;;;;;;;;;;;;;;;14.51;100.00;98899.38;5084715;28;19925;-76
2022/04/21 07:25:43;;;;;;;;;;;;;;;15.26;100.00;98893.44;5094224;28;19925;-76
2022/04/21 07:28:10;;;;;;;;;;;;;;;14.84;100.00;98889.38;5092758;28;20484;-76
2022/04/21 07:30:38;;;;;;;;;;;;;;;13.79;100.00;98902.13;5082428;28;20299;-76
2022/04/21 07:33:05;;;;;;;;;;;;;;;14.27;100.00;98901.78;5055657;28;19925;-76
2022/04/21 07:35:34;;;;;;;;;;;;;;;15.01;100.00;98891.53;5081655;28;19947;-76
2022/04/21 07:38:01;;;;;;;;;;;;;;;14.43;100.00;98898.84;5072654;28;19928;-76
2022/04/21 07:40:28;;;;;;;;;;;;;;;14.01;100.00;98905.84;5082324;28;19924;-76
2022/04/21 07:42:57;;;;;;;;;;;;;;;14.01;100.00;98895.38;5077025;28;20020;-76
2022/04/21 07:45:25;;;;;;;;;;;;;;;14.32;100.00;98909.66;5090199;28;19929;-76
2022/04/21 07:47:52;;;;;;;;;;;;;;;14.16;100.00;98898.53;5076471;28;20279;-76
2022/04/21 07:50:19;;;;;;;;;;;;;;;15.04;100.00;98903.91;5076164;28;19971;-76
2022/04/21 07:53:14;;;;;;;;;;;;;;;14.71;100.00;98902.72;5074776;28;19931;-76
2022/04/21 07:55:42;;;;;;;;;;;;;;;14.68;100.00;98903.63;5067739;28;20363;-76
2022/04/21 07:58:10;;;;;;;;;;;;;;;14.56;100.00;98891.16;5069377;28;20006;-76
2022/04/21 08:00:38;;;;;;;;;;;;;;;14.25;100.00;98893.03;5069682;28;19924;-77
2022/04/21 08:03:10;;;;;;;;;;;;;;;14.39;100.00;98898.16;5074733;28;19928;-76
2022/04/21 08:05:41;;;;;;;;;;;;;;;14.80;100.00;98902.78;5072302;28;19971;-76
2022/04/21 08:08:11;;;;;;;;;;;;;;;15.06;100.00;98907.03;5072114;28;19970;-76
2022/04/21 08:10:38;;;;;;;;;;;;;;;14.60;100.00;98908.66;5083048;28;20385;-76
2022/04/21 08:13:06;;;;;;;;;;;;;;;14.86;100.00;98901.72;5075732;28;19925;-76
2022/04/21 08:15:34;;;;;;;;;;;;;;;14.82;100.00;98898.28;5070217;28;19931;-76
2022/04/21 08:18:04;;;;;;;;;;;;;;;15.27;100.00;98895.00;5074738;28;19974;-76
2022/04/21 08:20:33;;;;;;;;;;;;;;;14.33;100.00;98900.75;5077067;28;20597;-75
2022/04/21 08:23:01;;;;;;;;;;;;;;;15.04;100.00;98892.66;5071128;28;19974;-76
2022/04/21 08:34:12;;;;;;;;;;;;;;;15.31;100.00;98885.19;5051838;28;19925;-77
2022/04/21 08:36:39;;;;;;;;;;;;;;;15.68;100.00;98898.25;5050568;28;20330;-78
2022/04/21 08:39:06;;;;;;;;;;;;;;;14.94;100.00;98903.06;5052157;28;19925;-78
2022/04/21 08:41:36;;;;;;;;;;;;;;;14.92;100.00;98901.94;5051784;28;19925;-77
2022/04/21 08:44:04;;;;;;;;;;;;;;;15.24;100.00;98905.16;5050200;28;19932;-78
2022/04/21 08:46:32;;;;;;;;;;;;;;;14.82;100.00;98906.72;5051854;28;19931;-78
2022/04/21 08:49:00;;;;;;;;;;;;;;;14.70;100.00;98899.09;5051974;28;19932;-77
2022/04/21 08:51:28;;;;;;;;;;;;;;;14.58;100.00;98905.56;5051428;28;19952;-77
2022/04/21 08:53:55;;;;;;;;;;;;;;;14.90;100.00;98905.22;5052515;28;20292;-77
2022/04/21 08:56:22;;;;;;;;;;;;;;;15.22;100.00;98901.25;5053834;28;19935;-78
2022/04/21 08:58:49;;;;;;;;;;;;;;;15.37;100.00;98911.53;5054567;28;19932;-77
2022/04/21 09:01:17;;;;;;;;;;;;;;;15.25;100.00;98908.75;5054993;28;19932;-78
2022/04/21 09:03:46;;;;;;;;;;;;;;;15.02;100.00;98910.00;5053865;28;19925;-78
2022/04/21 09:06:14;;;;;;;;;;;;;;;14.73;100.00;98912.25;5054985;28;20012;-77
2022/04/21 09:08:41;;;;;;;;;;;;;;;14.51;100.00;98917.03;5055064;28;19936;-77
2022/04/21 09:11:09;;;;;;;;;;;;;;;14.82;100.00;98915.16;5053789;28;19925;-77
2022/04/21 09:13:37;;;;;;;;;;;;;;;14.59;100.00;98909.91;5054846;28;20033;-77
2022/04/21 09:16:05;;;;;;;;;;;;;;;15.51;100.00;98916.63;5057991;28;20279;-76
2022/04/21 09:18:43;;;;;;;;;;;;;;;15.45;100.00;98910.00;5074073;28;19924;-76
2022/04/21 09:21:10;;;;;;;;;;;;;;;14.85;100.00;98907.81;5073773;28;19969;-75
2022/04/21 09:23:38;;;;;;;;;;;;;;;14.76;100.00;98902.91;5074322;28;19929;-75
2022/04/21 09:26:09;;;;;;;;;;;;;;;14.60;100.00;98908.66;5072959;28;19936;-75
2022/04/21 09:28:39;;;;;;;;;;;;;;;14.94;100.00;98905.88;5082485;28;19925;-75
2022/04/21 09:31:08;;;;;;;;;;;;;;;15.09;100.00;98901.28;5068683;28;19932;-75
2022/04/21 09:33:42;;;;;;;;;;;;;;;15.01;100.00;98899.97;5070378;28;19931;-75
2022/04/21 09:36:09;;;;;;;;;;;;;;;15.10;100.00;98897.22;5058242;28;19925;-74
2022/04/21 09:38:38;;;;;;;;;;;;;;;14.92;100.00;98897.09;5061521;28;19925;-75
2022/04/21 09:41:06;;;;;;;;;;;;;;;14.90;100.00;98896.78;5069391;28;19932;-75
2022/04/21 09:43:35;;;;;;;;;;;;;;;15.28;100.00;98902.22;5070021;28;20380;-75
2022/04/21 09:46:11;;;;;;;;;;;;;;;14.22;100.00;98905.91;5070048;28;19974;-74
2022/04/21 09:48:39;;;;;;;;;;;;;;;14.44;100.00;98903.22;5070469;28;20510;-75
2022/04/21 09:51:14;;;;;;;;;;;;;;;14.29;100.00;98902.13;5069922;28;19962;-75
2022/04/21 09:53:49;;;;;;;;;;;;;;;14.45;100.00;98908.38;5069978;28;19930;-75
2022/04/21 09:56:17;;;;;;;;;;;;;;;14.74;100.00;98898.97;5069140;28;19924;-75
2022/04/21 09:59:09;;;;;;;;;;;;;;;15.05;100.00;98895.03;5068416;28;19952;-74
2022/04/21 10:01:39;;;;;;;;;;;;;;;14.85;100.00;98894.53;5064199;28;19931;-74
2022/04/21 10:04:06;;;;;;;;;;;;;;;15.10;100.00;98896.47;5065170;28;19928;-74
2022/04/21 10:06:37;;;;;;;;;;;;;;;15.02;100.00;98900.78;5045331;28;19931;-75
2022/04/21 10:09:05;;;;;;;;;;;;;;;14.99;100.00;98902.47;5052104;28;19924;-75
2022/04/21 10:11:32;;;;;;;;;;;;;;;15.08;100.00;98896.91;5069120;28;19925;-75
2022/04/21 10:13:59;;;;;;;;;;;;;;;14.62;100.00;98894.94;5065295;28;19932;-75
2022/04/21 10:16:30;;;;;;;;;;;;;;;14.79;100.00;98899.19;5062440;28;19925;-75
2022/04/21 10:18:58;;;;;;;;;;;;;;;14.99;100.00;98902.47;5069827;28;19932;-75
2022/04/21 10:21:28;;;;;;;;;;;;;;;14.73;100.00;98898.19;5069394;28;19938;-75
2022/04/21 10:24:25;;;;;;;;;;;;;;;14.66;100.00;98911.72;5106564;27;19917;-76
2022/04/21 10:26:52;;;;;;;;;;;;;;;14.61;100.00;98910.25;5066618;28;19931;-76
2022/04/21 10:29:22;;;;;;;;;;;;;;;14.73;100.00;98901.00;5059533;28;19932;-77
2022/04/21 10:32:00;;;;;;;;;;;;;;;14.76;100.00;98900.09;5067041;28;19929;-76
2022/04/21 10:34:40;;;;;;;;;;;;;;;15.02;100.00;98906.41;5067223;28;19924;-76
2022/04/21 10:37:12;;;;;;;;;;;;;;;15.29;100.00;98896.13;5067074;28;20007;-76
2022/04/21 10:39:41;;;;;;;;;;;;;;;14.73;100.00;98889.75;5055731;28;20016;-76
2022/04/21 10:42:13;;;;;;;;;;;;;;;14.80;100.00;98899.97;5066397;28;19932;-76
2022/04/21 10:44:43;;;;;;;;;;;;;;;15.20;100.00;98900.91;5066802;28;19924;-76
2022/04/21 10:47:27;;;;;;;;;;;;;;;14.93;100.00;98897.88;5067157;28;20265;-76
2022/04/21 10:49:55;;;;;;;;;;;;;;;14.93;100.00;98898.69;5099081;28;20015;-76
2022/04/21 10:57:55;;;;;;;;;;;;;;;14.85;100.00;98883.28;5063197;28;19928;-76
2022/04/21 11:00:27;;;;;;;;;;;;;;;14.90;100.00;98902.41;5066499;28;19939;-76
2022/04/21 11:03:00;;;;;;;;;;;;;;;15.07;100.00;98898.16;5066412;28;20019;-76
2022/04/21 11:05:38;;;;;;;;;;;;;;;15.53;100.00;98894.44;5066786;28;19932;-76
2022/04/21 11:08:12;;;;;;;;;;;;;;;15.26;100.00;98894.22;5066705;28;20028;-76
2022/04/21 11:10:42;;;;;;;;;;;;;;;15.32;100.00;98903.66;5066258;28;19932;-76
2022/04/21 11:13:11;;;;;;;;;;;;;;;15.10;100.00;98885.97;5065645;28;19924;-76
2022/04/21 11:15:45;;;;;;;;;;;;;;;15.07;100.00;98898.16;5062802;28;19931;-76
2022/04/21 11:18:18;;;;;;;;;;;;;;;15.57;100.00;98897.88;5065955;28;19924;-77
2022/04/21 11:20:50;;;;;;;;;;;;;;;15.34;100.00;98897.56;5061407;28;19932;-77
2022/04/21 11:23:30;;;;;;;;;;;;;;;15.91;100.00;98894.13;5054822;28;19928;-76
2022/04/21 11:26:07;;;;;;;;;;;;;;;15.93;100.00;98895.25;5097941;28;19924;-76
2022/04/21 11:28:34;;;;;;;;;;;;;;;15.85;100.00;98890.34;5062991;28;19929;-76
2022/04/21 11:31:03;;;;;;;;;;;;;;;16.13;100.00;98892.81;5065243;28;19931;-77
2022/04/21 11:33:33;;;;;;;;;;;;;;;16.00;100.00;98885.72;5065358;28;19924;-77
2022/04/21 11:36:04;;;;;;;;;;;;;;;15.88;100.00;98884.59;5082790;28;19929;-76
2022/04/21 11:38:32;;;;;;;;;;;;;;;15.53;100.00;98885.97;5054314;28;20434;-77
2022/04/21 11:41:03;;;;;;;;;;;;;;;15.69;100.00;98877.28;5050669;28;19931;-77
2022/04/21 11:43:33;;;;;;;;;;;;;;;16.06;100.00;98887.47;5052704;28;20038;-78
2022/04/21 11:46:01;;;;;;;;;;;;;;;15.76;100.00;98881.88;5033443;28;19925;-78
2022/04/21 11:48:31;;;;;;;;;;;;;;;16.32;100.00;98884.41;5051972;28;19924;-78
2022/04/21 11:50:59;;;;;;;;;;;;;;;16.22;100.00;98875.94;5050501;28;19978;-78
2022/04/21 11:53:40;;;;;;;;;;;;;;;16.07;100.00;98879.78;5049762;28;19934;-77
2022/04/21 11:56:11;;;;;;;;;;;;;;;16.29;100.00;98874.84;5040872;28;19929;-76
2022/04/21 11:58:40;;;;;;;;;;;;;;;15.96;100.00;98883.03;5037304;28;20339;-76
2022/04/21 12:07:03;;;;;;;;;;;;;;;15.94;100.00;98860.19;5050503;28;20007;-76
2022/04/21 12:09:34;;;;;;;;;;;;;;;16.23;100.00;98865.44;5053886;28;20391;-76
2022/04/21 12:12:03;;;;;;;;;;;;;;;15.92;100.00;98868.31;5055044;28;20276;-76
2022/04/21 12:14:30;;;;;;;;;;;;;;;16.34;100.00;98865.00;5053909;28;19925;-77
2022/04/21 12:16:59;;;;;;;;;;;;;;;16.67;100.00;98854.72;5054134;28;19929;-77
2022/04/21 12:19:26;;;;;;;;;;;;;;;16.76;100.00;98846.25;5055386;28;19971;-77
2022/04/21 12:21:55;;;;;;;;;;;;;;;17.01;100.00;98862.88;5055205;28;19925;-77
2022/04/21 12:24:41;;;;;;;;;;;;;;;16.66;100.00;98859.56;5035083;28;19925;-77
2022/04/21 12:27:14;;;;;;;;;;;;;;;16.67;100.00;98854.72;5028291;28;19948;-76
2022/04/21 12:29:50;;;;;;;;;;;;;;;16.43;100.00;98865.00;5033891;28;19947;-77
2022/04/21 12:32:20;;;;;;;;;;;;;;;16.70;100.00;98859.44;5033468;28;19940;-77
2022/04/21 12:34:47;;;;;;;;;;;;;;;16.63;100.00;98845.66;5033372;28;19928;-76
2022/04/21 12:37:15;;;;;;;;;;;;;;;17.35;100.00;98848.38;5014408;28;19932;-77
2022/04/21 12:39:43;;;;;;;;;;;;;;;16.79;100.00;98842.50;5015693;28;19932;-77
2022/04/21 12:42:27;;;;;;;;;;;;;;;16.74;100.00;98837.47;5029316;28;20370;-77
2022/04/21 12:44:55;;;;;;;;;;;;;;;16.60;100.00;98843.75;5033448;28;19925;-77
2022/04/21 12:47:22;;;;;;;;;;;;;;;16.66;100.00;98847.53;5032286;28;20020;-77
2022/04/21 12:49:52;;;;;;;;;;;;;;;16.69;100.00;98843.75;5034704;28;19925;-76
2022/04/21 12:52:31;;;;;;;;;;;;;;;16.65;100.00;98843.13;5034295;28;19936;-76
2022/04/21 12:54:59;;;;;;;;;;;;;;;16.76;100.00;98841.41;5021222;28;19925;-77
2022/04/21 12:57:29;;;;;;;;;;;;;;;16.83;100.00;98837.47;5028744;28;19925;-78
2022/04/21 12:59:57;;;;;;;;;;;;;;;16.13;100.00;98839.25;5035374;28;19997;-76
2022/04/21 13:02:25;;;;;;;;;;;;;;;16.39;100.00;98850.28;5021653;28;19925;-76
2022/04/21 13:04:52;;;;;;;;;;;;;;;16.56;100.00;98826.97;5033577;28;19925;-77
2022/04/21 13:07:21;;;;;;;;;;;;;;;16.61;100.00;98842.50;5034552;28;20434;-77
2022/04/21 13:09:49;;;;;;;;;;;;;;;16.23;100.00;98829.59;5034519;28;19936;-77
2022/04/21 13:12:16;;;;;;;;;;;;;;;16.21;100.00;98834.09;5033487;28;19925;-77
2022/04/21 13:14:43;;;;;;;;;;;;;;;16.77;100.00;98836.53;5034458;28;19925;-77
2022/04/21 13:17:10;;;;;;;;;;;;;;;16.53;100.00;98825.09;5034296;28;20019;-77
2022/04/21 13:19:37;;;;;;;;;;;;;;;16.42;100.00;98832.44;5035097;28;19935;-77
2022/04/21 13:22:04;;;;;;;;;;;;;;;16.64;100.00;98827.47;5035229;28;20315;-77
2022/04/21 13:24:32;;;;;;;;;;;;;;;16.57;100.00;98808.03;5054324;28;19931;-77
2022/04/21 13:27:01;;;;;;;;;;;;;;;16.94;100.00;98812.38;5086473;28;20289;-77
2022/04/21 13:29:29;;;;;;;;;;;;;;;16.99;100.00;98800.47;5050891;28;19925;-77
2022/04/21 13:34:42;;;;;;;;;;;;;;;17.07;100.00;98821.47;5053708;28;19932;-78
2022/04/21 13:37:12;;;;;;;;;;;;;;;16.63;100.00;98814.63;5036317;28;20367;-77
2022/04/21 13:39:40;;;;;;;;;;;;;;;16.48;100.00;98813.66;5053999;28;19929;-76